createdAt,value
2023-02-16T00:01:53.024Z,37.95
2023-02-16T00:04:22.092Z,35.65
2023-02-16T00:06:49.409Z,38.58
2023-02-16T00:09:16.680Z,34.25
2023-02-16T00:12:02.272Z,40.22
2023-02-16T00:14:28.994Z,36.85
2023-02-16T00:16:57.499Z,37.05
2023-02-16T00:19:26.640Z,37.83
2023-02-16T00:21:57.180Z,39.70
2023-02-16T00:24:24.788Z,39.05
2023-02-16T00:26:51.534Z,30.15
2023-02-16T00:29:32.187Z,37.53
2023-02-16T00:31:59.965Z,34.90
2023-02-16T00:34:34.549Z,40.55
2023-02-16T00:37:04.380Z,38.65
2023-02-16T00:39:31.694Z,38.42
2023-02-16T00:42:17.456Z,35.20
2023-02-16T00:44:49.073Z,34.90
2023-02-16T00:47:22.849Z,35.67
2023-02-16T00:49:51.536Z,37.28
2023-02-16T00:52:42.722Z,34.97
2023-02-16T00:55:18.595Z,35.72
2023-02-16T00:57:55.972Z,39.50
2023-02-16T01:00:30.479Z,38.00
2023-02-16T01:03:02.966Z,37.58
2023-02-16T01:05:29.699Z,45.88
2023-02-16T01:08:18.120Z,43.10
2023-02-16T01:11:11.189Z,49.38
2023-02-16T01:13:46.762Z,41.45
2023-02-16T01:16:19.524Z,36.70
2023-02-16T01:18:46.786Z,36.75
2023-02-16T01:21:13.440Z,43.72
2023-02-16T01:23:40.238Z,44.00
2023-02-16T01:26:16.106Z,47.97
2023-02-16T01:28:43.714Z,43.97
2023-02-16T01:31:11.961Z,44.55
2023-02-16T01:33:39.690Z,38.85
2023-02-16T01:36:19.968Z,46.63
2023-02-16T01:38:46.788Z,68.75
2023-02-16T01:41:29.109Z,56.78
2023-02-16T01:44:05.774Z,46.03
2023-02-16T01:46:39.710Z,52.45
2023-02-16T01:49:12.754Z,71.60
2023-02-16T01:52:20.518Z,43.53
2023-02-16T01:54:51.445Z,45.25
2023-02-16T01:57:29.472Z,47.20
2023-02-16T01:59:56.092Z,48.35
2023-02-16T02:02:24.998Z,44.25
2023-02-16T02:05:13.013Z,52.50
2023-02-16T02:07:45.848Z,43.20
2023-02-16T02:10:31.507Z,44.25
2023-02-16T02:13:29.422Z,39.08
2023-02-16T02:15:58.537Z,48.20
2023-02-16T02:18:25.994Z,53.58
2023-02-16T02:21:48.079Z,46.47
2023-02-16T02:24:39.823Z,56.13
2023-02-16T02:27:13.407Z,46.38
2023-02-16T02:29:58.679Z,36.42
2023-02-16T02:32:58.635Z,42.90
2023-02-16T02:35:36.215Z,47.50
2023-02-16T02:38:37.349Z,59.75
2023-02-16T02:41:45.715Z,41.85
2023-02-16T02:44:14.468Z,41.95
2023-02-16T02:46:41.602Z,62.35
2023-02-16T02:49:08.350Z,41.38
2023-02-16T02:51:40.186Z,53.90
2023-02-16T02:54:48.155Z,66.20
2023-02-16T02:57:48.905Z,48.97
2023-02-16T03:00:40.251Z,53.38
2023-02-16T03:03:27.551Z,45.30
2023-02-16T03:06:02.714Z,58.38
2023-02-16T03:08:32.098Z,50.63
2023-02-16T03:11:20.906Z,46.40
2023-02-16T03:13:55.573Z,47.15
2023-02-16T03:16:34.200Z,48.42
2023-02-16T03:19:21.116Z,54.35
2023-02-16T03:22:06.702Z,74.18
2023-02-16T03:24:52.564Z,56.08
2023-02-16T03:27:44.647Z,44.13
2023-02-16T03:30:13.571Z,50.93
2023-02-16T03:32:40.355Z,48.50
2023-02-16T03:35:08.582Z,43.38
2023-02-16T03:37:35.537Z,40.28
2023-02-16T03:40:21.105Z,49.72
2023-02-16T03:42:51.460Z,36.05
2023-02-16T03:45:21.483Z,41.30
2023-02-16T03:47:48.204Z,46.22
2023-02-16T03:50:15.100Z,37.45
2023-02-16T03:52:41.854Z,55.25
2023-02-16T03:55:08.579Z,59.05
2023-02-16T03:57:35.265Z,41.42
2023-02-16T04:00:01.965Z,40.70
2023-02-16T04:02:29.467Z,34.80
2023-02-16T04:04:56.372Z,38.40
2023-02-16T04:07:23.162Z,36.67
2023-02-16T04:09:49.820Z,37.85
2023-02-16T04:12:35.349Z,39.90
2023-02-16T04:15:12.736Z,34.13
2023-02-16T04:17:39.577Z,36.63
2023-02-16T04:20:08.404Z,38.67
2023-02-16T04:22:35.258Z,41.65
2023-02-16T04:27:28.883Z,47.67
2023-02-16T04:29:55.568Z,60.90
2023-02-16T04:32:22.814Z,52.17
2023-02-16T04:34:49.503Z,56.45
2023-02-16T04:37:16.188Z,53.03
2023-02-16T04:39:42.941Z,44.95
2023-02-16T04:42:09.698Z,45.15
2023-02-16T04:44:36.356Z,54.88
2023-02-16T04:47:03.176Z,39.17
2023-02-16T04:49:30.057Z,43.50
2023-02-16T04:51:56.832Z,34.85
2023-02-16T04:54:23.584Z,40.88
2023-02-16T04:56:50.361Z,39.20
2023-02-16T04:59:17.170Z,42.58
2023-02-16T05:01:43.985Z,58.65
2023-02-16T05:04:11.026Z,38.00
2023-02-16T05:06:38.790Z,47.20
2023-02-16T05:09:06.532Z,51.08
2023-02-16T05:11:51.756Z,43.47
2023-02-16T05:14:41.960Z,40.53
2023-02-16T05:17:13.571Z,31.25
2023-02-16T05:19:41.238Z,33.25
2023-02-16T05:22:09.917Z,34.80
2023-02-16T05:24:37.417Z,31.67
2023-02-16T05:27:06.717Z,34.90
2023-02-16T05:29:33.674Z,33.72
2023-02-16T05:32:03.255Z,40.38
2023-02-16T05:34:31.112Z,33.92
2023-02-16T05:36:57.928Z,37.08
2023-02-16T05:39:24.717Z,66.13
2023-02-16T05:41:51.447Z,56.08
2023-02-16T05:44:18.201Z,35.05
2023-02-16T05:46:46.429Z,53.15
2023-02-16T05:49:13.662Z,42.92
2023-02-16T05:51:40.309Z,31.20
2023-02-16T05:54:06.950Z,29.70
2023-02-16T05:56:33.778Z,30.15
2023-02-16T05:59:00.734Z,34.72
2023-02-16T06:01:28.391Z,41.97
2023-02-16T06:03:55.046Z,46.70
2023-02-16T06:06:21.735Z,39.92
2023-02-16T06:08:48.479Z,35.58
2023-02-16T06:11:33.893Z,35.63
2023-02-16T06:14:01.692Z,32.63
2023-02-16T06:16:30.727Z,36.75
2023-02-16T06:18:57.709Z,40.33
2023-02-16T06:21:25.286Z,42.05
2023-02-16T06:23:52.312Z,33.53
2023-02-16T06:26:19.969Z,40.85
2023-02-16T06:28:46.704Z,46.33
2023-02-16T06:31:13.600Z,39.50
2023-02-16T06:33:40.355Z,44.30
2023-02-16T06:36:07.456Z,38.88
2023-02-16T06:38:34.137Z,43.33
2023-02-16T06:41:01.172Z,44.45
2023-02-16T06:43:29.890Z,41.45
2023-02-16T06:45:57.629Z,39.13
2023-02-16T06:48:24.446Z,37.95
2023-02-16T06:50:51.513Z,34.42
2023-02-16T06:53:18.328Z,38.95
2023-02-16T06:55:44.991Z,33.53
2023-02-16T06:58:11.858Z,36.05
2023-02-16T07:00:38.846Z,40.50
2023-02-16T07:03:05.635Z,36.75
2023-02-16T07:05:32.301Z,35.25
2023-02-16T07:07:59.032Z,33.75
2023-02-16T07:10:25.627Z,34.55
2023-02-16T07:12:52.299Z,30.05
2023-02-16T07:15:19.044Z,27.50
2023-02-16T07:17:45.728Z,33.15
2023-02-16T07:20:13.066Z,36.33
2023-02-16T07:22:40.131Z,33.53
2023-02-16T07:25:07.129Z,34.80
2023-02-16T07:27:33.787Z,41.90
2023-02-16T07:30:01.423Z,44.53
2023-02-16T07:32:29.395Z,43.22
2023-02-16T07:34:59.083Z,36.05
2023-02-16T07:37:25.822Z,39.25
2023-02-16T07:39:53.133Z,42.25
2023-02-16T07:42:20.706Z,35.58
2023-02-16T07:44:47.995Z,34.35
2023-02-16T07:47:14.747Z,36.30
2023-02-16T07:49:41.404Z,35.13
2023-02-16T07:52:08.070Z,30.67
2023-02-16T07:54:34.785Z,36.22
2023-02-16T07:57:01.478Z,33.92
2023-02-16T07:59:28.111Z,30.88
2023-02-16T08:01:54.898Z,30.77
2023-02-16T08:04:21.591Z,33.03
2023-02-16T08:06:48.644Z,30.40
2023-02-16T08:09:15.783Z,36.63
2023-02-16T08:11:42.467Z,42.58
2023-02-16T08:14:09.514Z,42.53
2023-02-16T08:16:36.240Z,36.50
2023-02-16T08:19:04.457Z,39.95
2023-02-16T08:21:33.057Z,37.63
2023-02-16T08:24:07.874Z,39.13
2023-02-16T08:26:37.534Z,39.70
2023-02-16T08:29:04.855Z,48.47
2023-02-16T08:31:34.989Z,42.50
2023-02-16T08:34:03.074Z,47.25
2023-02-16T08:36:32.973Z,44.33
2023-02-16T08:39:01.041Z,49.70
2023-02-16T08:41:37.183Z,46.35
2023-02-16T08:44:05.863Z,43.80
2023-02-16T08:46:34.134Z,45.10
2023-02-16T08:49:01.432Z,55.60
2023-02-16T08:51:30.370Z,46.05
2023-02-16T08:54:00.895Z,42.53
2023-02-16T08:56:29.761Z,51.30
2023-02-16T08:58:57.092Z,49.80
2023-02-16T09:01:23.756Z,53.70
2023-02-16T09:03:50.598Z,53.60
2023-02-16T09:06:22.004Z,55.45
2023-02-16T09:08:56.150Z,56.53
2023-02-16T09:11:23.634Z,60.53
2023-02-16T09:13:50.641Z,57.15
2023-02-16T09:16:20.380Z,55.20
2023-02-16T09:18:47.616Z,55.30
2023-02-16T09:21:16.750Z,54.40
2023-02-16T09:23:49.995Z,57.67
2023-02-16T09:26:18.552Z,59.28
2023-02-16T09:28:45.886Z,54.47
2023-02-16T09:31:15.230Z,53.63
2023-02-16T09:33:43.464Z,58.55
2023-02-16T09:36:11.708Z,57.75
2023-02-16T09:38:41.774Z,54.03
2023-02-16T09:41:23.156Z,61.63
2023-02-16T09:44:01.098Z,54.20
2023-02-16T09:46:29.740Z,53.35
2023-02-16T09:48:56.900Z,51.85
2023-02-16T09:51:35.390Z,48.42
2023-02-16T09:54:47.058Z,44.33
2023-02-16T09:57:23.780Z,44.80
2023-02-16T10:00:06.596Z,53.10
2023-02-16T10:02:46.509Z,52.85
2023-02-16T10:05:52.534Z,57.38
2023-02-16T10:08:25.052Z,47.45
2023-02-16T10:11:06.340Z,50.40
2023-02-16T10:13:40.678Z,42.63
2023-02-16T10:16:13.945Z,46.80
2023-02-16T10:21:15.888Z,44.42
2023-02-16T10:23:48.689Z,45.92
2023-02-16T10:26:18.051Z,42.15
2023-02-16T10:28:46.494Z,39.50
2023-02-16T10:31:18.930Z,40.15
2023-02-16T10:34:03.228Z,37.05
2023-02-16T10:36:48.279Z,44.70
2023-02-16T10:39:29.638Z,37.55
2023-02-16T10:42:03.541Z,37.83
2023-02-16T10:44:41.099Z,42.38
2023-02-16T10:47:24.353Z,41.13
2023-02-16T10:49:51.526Z,41.63
2023-02-16T10:52:18.696Z,44.15
2023-02-16T10:54:45.422Z,45.70
2023-02-16T10:57:22.302Z,48.67
2023-02-16T10:59:49.235Z,42.45
2023-02-16T11:02:24.980Z,47.90
2023-02-16T11:04:57.271Z,44.55
2023-02-16T11:07:29.903Z,43.58
2023-02-16T11:09:58.183Z,37.10
2023-02-16T11:12:39.033Z,43.30
2023-02-16T11:15:16.535Z,47.40
2023-02-16T11:18:00.919Z,33.28
2023-02-16T11:20:44.959Z,39.22
2023-02-16T11:23:17.663Z,41.08
2023-02-16T11:26:03.553Z,35.97
2023-02-16T11:28:44.561Z,39.28
2023-02-16T11:31:31.823Z,40.00
2023-02-16T11:34:06.112Z,35.95
2023-02-16T11:36:41.466Z,35.88
2023-02-16T11:39:14.071Z,37.67
2023-02-16T11:42:02.247Z,42.33
2023-02-16T11:44:32.960Z,36.83
2023-02-16T11:47:01.508Z,39.35
2023-02-16T11:49:37.312Z,33.75
2023-02-16T11:52:24.752Z,37.90
2023-02-16T11:54:57.458Z,43.88
2023-02-16T11:57:28.380Z,33.40
2023-02-16T11:59:56.323Z,38.38
2023-02-16T12:02:34.843Z,36.10
2023-02-16T12:05:19.389Z,41.13
2023-02-16T12:08:19.758Z,35.92
2023-02-16T12:11:00.660Z,37.75
2023-02-16T12:14:08.891Z,32.38
2023-02-16T12:16:38.265Z,32.72
2023-02-16T12:19:23.226Z,31.98
2023-02-16T12:21:53.437Z,30.65
2023-02-16T12:24:50.192Z,30.40
2023-02-16T12:27:21.371Z,32.58
2023-02-16T12:30:08.021Z,33.63
2023-02-16T12:32:53.274Z,29.40
2023-02-16T12:35:27.172Z,31.30
2023-02-16T12:38:33.927Z,32.67
2023-02-16T12:41:19.106Z,26.95
2023-02-16T12:43:49.098Z,27.63
2023-02-16T12:46:28.054Z,29.73
2023-02-16T12:49:01.377Z,27.67
2023-02-16T12:51:36.545Z,26.80
2023-02-16T12:54:12.145Z,25.75
2023-02-16T12:56:50.178Z,27.48
2023-02-16T12:59:23.728Z,27.25
2023-02-16T13:01:52.777Z,26.45
2023-02-16T13:04:30.302Z,26.10
2023-02-16T13:07:06.137Z,26.83
2023-02-16T13:09:37.439Z,23.23
2023-02-16T13:12:32.045Z,26.13
2023-02-16T13:15:18.261Z,25.40
2023-02-16T13:17:49.203Z,23.05
2023-02-16T13:20:18.358Z,28.80
2023-02-16T13:23:21.819Z,25.83
2023-02-16T13:26:10.575Z,23.60
2023-02-16T13:28:54.710Z,24.63
2023-02-16T13:31:49.759Z,25.67
2023-02-16T13:34:47.197Z,31.98
2023-02-16T13:37:42.285Z,31.48
2023-02-16T13:40:36.572Z,22.65
2023-02-16T13:43:18.971Z,25.17
2023-02-16T13:45:47.312Z,23.52
2023-02-16T13:48:40.326Z,19.67
2023-02-16T13:51:15.640Z,20.35
2023-02-16T13:53:43.601Z,24.88
2023-02-16T13:56:28.687Z,27.60
2023-02-16T13:58:57.932Z,27.45
2023-02-16T14:01:45.642Z,25.38
2023-02-16T14:04:32.522Z,24.00
2023-02-16T14:07:06.990Z,25.45
2023-02-16T14:09:39.861Z,25.05
2023-02-16T14:12:11.388Z,21.92
2023-02-16T14:14:43.691Z,20.30
2023-02-16T14:17:16.423Z,20.80
2023-02-16T14:19:58.244Z,20.40
2023-02-16T14:22:46.819Z,23.38
2023-02-16T14:25:22.648Z,22.67
2023-02-16T14:27:59.055Z,20.48
2023-02-16T14:30:31.839Z,21.40
2023-02-16T14:33:16.276Z,14.95
2023-02-16T14:36:04.598Z,14.77
2023-02-16T14:38:36.796Z,14.20
2023-02-16T14:41:07.967Z,15.60
2023-02-16T14:43:48.096Z,15.75
2023-02-16T14:46:39.730Z,18.08
2023-02-16T14:49:17.558Z,15.43
2023-02-16T14:52:21.055Z,13.52
2023-02-16T14:55:03.699Z,11.55
2023-02-16T14:57:36.500Z,12.27
2023-02-16T15:00:06.978Z,9.70
2023-02-16T15:02:35.983Z,10.48
2023-02-16T15:05:20.117Z,11.82
2023-02-16T15:07:50.388Z,9.23
2023-02-16T15:10:26.608Z,12.30
2023-02-16T15:12:55.486Z,13.52
2023-02-16T15:15:42.887Z,10.75
2023-02-16T15:18:16.340Z,11.32
2023-02-16T15:20:45.474Z,10.80
2023-02-16T15:23:21.380Z,8.20
2023-02-16T15:26:00.036Z,13.10
2023-02-16T15:28:29.856Z,8.65
2023-02-16T15:31:07.748Z,12.27
2023-02-16T15:33:37.534Z,10.80
2023-02-16T15:36:08.797Z,9.43
2023-02-16T15:38:38.969Z,9.48
2023-02-16T15:41:13.733Z,9.55
2023-02-16T15:43:43.147Z,14.02
2023-02-16T15:46:31.067Z,19.90
2023-02-16T15:48:59.260Z,18.05
2023-02-16T15:51:31.519Z,16.50
2023-02-16T15:54:04.782Z,10.47
2023-02-16T15:59:16.442Z,10.32
2023-02-16T16:01:43.126Z,12.30
2023-02-16T16:04:18.519Z,16.60
2023-02-16T16:06:46.676Z,13.88
2023-02-16T16:09:22.229Z,16.30
2023-02-16T16:11:49.295Z,18.63
2023-02-16T16:14:16.102Z,18.05
2023-02-16T16:16:43.903Z,13.77
2023-02-16T16:19:19.708Z,15.20
2023-02-16T16:21:49.136Z,12.73
2023-02-16T16:24:28.252Z,11.80
2023-02-16T16:26:57.768Z,14.68
2023-02-16T16:29:45.094Z,17.05
2023-02-16T16:32:28.603Z,13.45
2023-02-16T16:34:55.751Z,13.68
2023-02-16T16:37:27.051Z,95.50
2023-02-16T16:40:18.697Z,116.75
2023-02-16T16:43:12.273Z,58.75
2023-02-16T16:45:44.394Z,27.67
2023-02-16T16:48:27.114Z,14.23
2023-02-16T16:51:12.084Z,12.50
2023-02-16T16:53:44.573Z,11.63
2023-02-16T16:56:13.484Z,8.27
2023-02-16T16:58:40.381Z,12.07
2023-02-16T17:01:08.844Z,13.02
2023-02-16T17:03:35.493Z,12.35
2023-02-16T17:06:02.435Z,12.27
2023-02-16T17:08:29.243Z,13.57
2023-02-16T17:10:56.003Z,14.90
2023-02-16T17:13:22.704Z,12.80
2023-02-16T17:16:07.162Z,9.63
2023-02-16T17:18:34.122Z,9.18
2023-02-16T17:21:00.826Z,13.32
2023-02-16T17:23:27.517Z,14.38
2023-02-16T17:25:56.847Z,9.38
2023-02-16T17:28:23.604Z,9.95
2023-02-16T17:30:50.419Z,9.90
2023-02-16T17:33:17.110Z,11.82
2023-02-16T17:35:43.846Z,13.63
2023-02-16T17:38:14.019Z,12.05
2023-02-16T17:40:41.348Z,10.88
2023-02-16T17:43:12.598Z,10.52
2023-02-16T17:45:39.309Z,12.27
2023-02-16T17:48:06.120Z,13.07
2023-02-16T17:50:32.960Z,16.10
2023-02-16T17:52:59.763Z,13.65
2023-02-16T17:55:26.460Z,15.57
2023-02-16T17:57:53.227Z,15.48
2023-02-16T18:00:20.708Z,12.02
2023-02-16T18:02:47.438Z,12.82
2023-02-16T18:05:14.096Z,14.65
2023-02-16T18:07:40.774Z,13.45
2023-02-16T18:10:08.291Z,15.93
2023-02-16T18:12:35.008Z,15.10
2023-02-16T18:15:01.783Z,13.98
2023-02-16T18:17:28.578Z,18.10
2023-02-16T18:19:55.260Z,16.27
2023-02-16T18:22:22.004Z,16.75
2023-02-16T18:24:48.753Z,15.15
2023-02-16T18:27:15.964Z,18.67
2023-02-16T18:29:42.731Z,17.88
2023-02-16T18:32:09.586Z,16.05
2023-02-16T18:34:37.462Z,17.27
2023-02-16T18:37:04.254Z,18.17
2023-02-16T18:39:31.028Z,17.70
2023-02-16T18:41:57.807Z,17.50
2023-02-16T18:44:24.546Z,17.20
2023-02-16T18:46:51.350Z,16.63
2023-02-16T18:49:18.084Z,16.33
2023-02-16T18:51:44.914Z,18.02
2023-02-16T18:54:11.610Z,18.77
2023-02-16T18:56:39.615Z,17.33
2023-02-16T18:59:06.426Z,19.42
2023-02-16T19:01:33.951Z,15.52
2023-02-16T19:04:02.357Z,22.10
2023-02-16T19:06:29.442Z,18.15
2023-02-16T19:08:58.414Z,20.13
2023-02-16T19:11:25.491Z,26.92
2023-02-16T19:13:52.146Z,26.02
2023-02-16T19:16:19.138Z,30.65
2023-02-16T19:18:46.072Z,26.10
2023-02-16T19:21:14.567Z,39.63
2023-02-16T19:23:41.369Z,42.92
2023-02-16T19:26:11.095Z,31.05
2023-02-16T19:28:39.111Z,23.88
2023-02-16T19:31:08.990Z,33.88
2023-02-16T19:33:35.742Z,36.15
2023-02-16T19:36:05.352Z,33.80
2023-02-16T19:38:32.937Z,32.22
2023-02-16T19:41:00.010Z,29.27
2023-02-16T19:43:27.200Z,24.27
2023-02-16T19:45:54.008Z,21.70
2023-02-16T19:48:20.739Z,19.95
2023-02-16T19:50:47.590Z,18.52
2023-02-16T19:53:14.603Z,19.42
2023-02-16T19:55:42.815Z,16.27
2023-02-16T19:58:09.613Z,12.30
2023-02-16T20:00:37.896Z,12.73
2023-02-16T20:03:04.778Z,20.40
2023-02-16T20:05:31.577Z,13.82
2023-02-16T20:07:58.301Z,16.63
2023-02-16T20:10:25.032Z,13.68
2023-02-16T20:12:51.774Z,16.00
2023-02-16T20:15:18.620Z,17.35
2023-02-16T20:17:45.529Z,23.42
2023-02-16T20:20:12.593Z,17.55
2023-02-16T20:22:39.346Z,21.83
2023-02-16T20:25:06.406Z,15.45
2023-02-16T20:27:33.380Z,17.70
2023-02-16T20:30:02.868Z,18.38
2023-02-16T20:32:29.802Z,14.40
2023-02-16T20:34:56.599Z,13.35
2023-02-16T20:37:23.428Z,13.13
2023-02-16T20:39:50.295Z,13.73
2023-02-16T20:42:17.024Z,11.25
2023-02-16T20:44:43.789Z,14.70
2023-02-16T20:47:11.632Z,11.48
2023-02-16T20:49:38.584Z,12.57
2023-02-16T20:52:05.436Z,13.88
2023-02-16T20:54:32.413Z,14.25
2023-02-16T20:56:59.149Z,13.93
2023-02-16T20:59:25.931Z,13.95
2023-02-16T21:01:53.125Z,16.10
2023-02-16T21:04:19.930Z,13.30
2023-02-16T21:06:46.654Z,17.75
2023-02-16T21:09:13.857Z,13.07
2023-02-16T21:11:41.161Z,15.65
2023-02-16T21:14:11.707Z,16.67
2023-02-16T21:16:40.883Z,20.75
2023-02-16T21:19:20.928Z,21.45
2023-02-16T21:21:49.252Z,19.48
2023-02-16T21:24:16.077Z,20.70
2023-02-16T21:26:42.907Z,17.10
2023-02-16T21:29:09.614Z,15.77
2023-02-16T21:31:36.533Z,22.33
2023-02-16T21:34:03.351Z,16.95
2023-02-16T21:36:30.187Z,18.77
2023-02-16T21:38:56.945Z,19.05
2023-02-16T21:41:27.492Z,17.13
2023-02-16T21:44:00.838Z,16.13
2023-02-16T21:46:30.103Z,14.07
2023-02-16T21:48:59.983Z,21.45
2023-02-16T21:51:32.492Z,18.73
2023-02-16T21:53:59.780Z,18.80
2023-02-16T21:56:33.431Z,18.88
2023-02-16T21:59:00.489Z,17.27
2023-02-16T22:01:30.136Z,17.85
2023-02-16T22:04:01.219Z,18.33
2023-02-16T22:06:34.042Z,16.85
2023-02-16T22:09:01.897Z,20.35
2023-02-16T22:11:28.726Z,16.35
2023-02-16T22:13:57.718Z,14.80
2023-02-16T22:16:26.445Z,17.13
2023-02-16T22:19:01.203Z,18.75
2023-02-16T22:21:28.273Z,16.60
2023-02-16T22:23:55.828Z,13.35
2023-02-16T22:26:25.210Z,16.90
2023-02-16T22:28:52.339Z,19.23
2023-02-16T22:31:20.314Z,17.80
2023-02-16T22:33:47.244Z,18.92
2023-02-16T22:36:15.715Z,16.23
2023-02-16T22:38:45.173Z,20.77
2023-02-16T22:41:12.444Z,20.67
2023-02-16T22:43:39.627Z,21.13
2023-02-16T22:46:13.353Z,16.90
2023-02-16T22:48:40.281Z,17.85
2023-02-16T22:51:08.813Z,17.08
2023-02-16T22:53:35.500Z,16.13
2023-02-16T22:56:05.126Z,16.38
2023-02-16T22:58:32.499Z,15.48
2023-02-16T23:00:59.325Z,13.02
2023-02-16T23:03:26.332Z,11.70
2023-02-16T23:05:53.050Z,16.38
2023-02-16T23:08:22.053Z,13.73
2023-02-16T23:11:00.997Z,9.82
2023-02-16T23:13:29.501Z,12.40
2023-02-16T23:15:57.322Z,18.00
2023-02-16T23:18:25.013Z,20.05
2023-02-16T23:20:51.759Z,16.27
2023-02-16T23:23:18.457Z,17.05
2023-02-16T23:25:49.709Z,12.18
2023-02-16T23:28:16.439Z,18.95
2023-02-16T23:30:44.690Z,16.95
2023-02-16T23:33:12.077Z,16.98
2023-02-16T23:35:39.726Z,19.13
2023-02-16T23:38:07.949Z,19.00
2023-02-16T23:40:34.701Z,19.65
2023-02-16T23:43:01.472Z,17.23
2023-02-16T23:45:28.199Z,17.40
2023-02-16T23:47:54.894Z,21.67
2023-02-16T23:50:21.620Z,25.88
2023-02-16T23:52:48.273Z,27.77
2023-02-16T23:55:15.163Z,27.73
2023-02-16T23:57:41.875Z,31.92
